Nearby METAR Reports

 

KALB - Albany, New York, USA
Distance from station: E 47mi, 75km
Updated: Tue, 25-Sep-2018 5:24pm EDT
Rain, Mist, Overcast
Rain, Mist, Overcast
 Wind from E
Wind: E 6 mph , 9 km/h
Temperature: 57°F , 14°C
Dew Point: 54°F , 12°C
Humidity: 88%
Barometer: 30.18 inHg , 1022 hPa
Summary: Rain, Mist
Clouds: Overcast
Visibility: 1 1/4 miles , 2 km
Cloud details: Mostly cloudy 500 ft
Overcast 1000 ft
2018/09/25 21:24 KALB 252124Z 08005KT 1 1/4SM R01/4500VP6000FT RA BR BKN005 OVC010 14/12 A3018 RMK AO2 P0015 T01390122
KSLK - Saranac Lake, New York, USA
Distance from station: N 110mi, 177km
Updated: Tue, 25-Sep-2018 4:51pm EDT
Overcast
Overcast
 Wind from calm
Wind: Calm
Temperature: 57°F , 14°C
Dew Point: 54°F , 12°C
Humidity: 88%
Barometer: 30.14 inHg , 1020.7 hPa
Clouds: Overcast
Visibility: 10 miles , 16 km
Cloud details: Overcast 2500 ft
2018/09/25 20:51 KSLK 252051Z AUTO 00000KT 10SM OVC025 14/12 A3014 RMK AO2 SLP207 60000 T01440122 56019
 
KSYR - Syracuse, New York, USA
Distance from station: W 73mi, 117km
Updated: Tue, 25-Sep-2018 4:54pm EDT
Overcast
Overcast
 Wind from S
Wind: S 12 mph , 19 km/h
Temperature: 68°F , 20°C
Dew Point: 64°F , 18°C
Humidity: 88%
Barometer: 30.07 inHg , 1018.3 hPa
Clouds: Overcast
Visibility: 10 miles , 16 km
Cloud details: Partly cloudy 2500 ft
Mostly cloudy 3500 ft
Overcast 8000 ft
2018/09/25 20:54 KSYR 252054Z 17010KT 10SM SCT025 BKN035 OVC080 20/18 A3007 RMK AO2 SLP180 T02000178 56017 $
KBGM - Binghamton, New York, USA
Distance from station: SW 78mi, 126km
Updated: Tue, 25-Sep-2018 4:53pm EDT
Overcast
Overcast
 Wind from S
Wind: S 6 mph , 9 km/h
Temperature: 63°F , 17°C
Dew Point: 61°F , 16°C
Humidity: 94%
Barometer: 30.13 inHg , 1020.3 hPa
Clouds: Overcast
Visibility: 10 miles , 16 km
Cloud details: Overcast 800 ft
2018/09/25 20:53 KBGM 252053Z 19005KT 10SM OVC008 17/16 A3013 RMK AO2 SLP204 T01670156 58017
 
KRME - Rome, New York, USA
Distance from station: WNW 43mi, 69km
Updated: Tue, 25-Sep-2018 4:53pm EDT
Overcast
Overcast
 Wind from ESE
Wind: ESE 9 mph , 15 km/h
Temperature: 59°F , 15°C
Dew Point: 57°F , 14°C
Humidity: 94%
Barometer: 30.14 inHg , 1020.7 hPa
Clouds: Overcast
Visibility: 10 miles , 16 km
Cloud details: Overcast 2000 ft
2018/09/25 20:53 KRME 252053Z 11008KT 10SM OVC020 15/14 A3014 RMK AO2 SLP206 60004 T01500144 58016
KJFK - New York, New York, USA
Distance from station: SSE 159mi, 256km
Updated: Tue, 25-Sep-2018 4:51pm EDT
Mist, Overcast
Mist, Overcast
 Wind from SSE
Wind: SSE 15 mph , 24 km/h
Temperature: 72°F , 22°C
Dew Point: 72°F , 22°C
Humidity: 100%
Barometer: 30.18 inHg , 1022 hPa
Summary: Mist
Clouds: Overcast
Visibility: 6 miles , 10 km
Cloud details: Mostly cloudy 700 ft
Mostly cloudy 2700 ft
Overcast 11000 ft
2018/09/25 20:51 KJFK 252051Z 16013KT 6SM BR BKN007 BKN027 OVC110 22/22 A3018 RMK AO2 PK WND 15026/2025 RAB23E49 SLP221 P0000 60000 T02220222 56016 $
 
KROC - Rochester, New York, USA
Distance from station: W 150mi, 242km
Updated: Tue, 25-Sep-2018 4:54pm EDT
Light rain, Overcast
Light rain, Overcast
 Wind from SSW
Wind: SSW 8 mph , 13 km/h
Temperature: 72°F , 22°C
Dew Point: 66°F , 19°C
Humidity: 83%
Barometer: 30.01 inHg , 1016.3 hPa
Summary: Light rain
Clouds: Overcast
Visibility: 10 miles , 16 km
Cloud details: Few Clouds 2000 ft
Partly cloudy 6000 ft
Mostly cloudy 11000 ft
Overcast 20000 ft
2018/09/25 20:54 KROC 252054Z 21007KT 10SM -RA FEW020 SCT060 BKN110 OVC200 22/19 A3001 RMK AO2 RAB34 SLP165 P0001 60001 T02170189 56015
KART - Watertown, New York, USA
Distance from station: NNW 103mi, 166km
Updated: Tue, 25-Sep-2018 4:56pm EDT
Overcast
Overcast
 Wind from S
Wind: S 10 mph , 17 km/h, Gust: 18 mph , 30 km/h
Temperature: 66°F , 19°C
Dew Point: 61°F , 16°C
Humidity: 83%
Barometer: 30.04 inHg , 1017.3 hPa
Clouds: Overcast
Visibility: 10 miles , 16 km
Cloud details: Overcast 3300 ft
2018/09/25 20:56 KART 252056Z AUTO 17009G16KT 10SM OVC033 19/16 A3004 RMK AO2 RAE16 SLP171 P0001 60001 T01890156 56016
 
KELM - Elmira-Corning, New York, USA
Distance from station: SSW 121mi, 195km
Updated: Tue, 25-Sep-2018 4:53pm EDT
Mostly cloudy
Mostly cloudy
 Wind from SW
Wind: SW 9 mph , 15 km/h
Temperature: 70°F , 21°C
Dew Point: 63°F , 17°C
Humidity: 78%
Barometer: 30.09 inHg , 1019 hPa
Clouds: Mostly cloudy
Visibility: 10 miles , 16 km
Cloud details: Mostly cloudy 2100 ft
Mostly cloudy 3400 ft
2018/09/25 20:53 KELM 252053Z 22008KT 10SM BKN021 BKN034 21/17 A3009 RMK AO2 SLP186 T02110172 56023
KJHW - Jamestown, New York, USA
Distance from station: SW 238mi, 383km
Updated: Tue, 25-Sep-2018 4:56pm EDT
Overcast
Overcast
 Wind from SSW
Wind: SSW 8 mph , 13 km/h
Temperature: 64°F , 18°C
Dew Point: 64°F , 18°C
Humidity: 100%
Barometer: 30.07 inHg , 1018.3 hPa
Clouds: Overcast
Visibility: 10 miles , 16 km
Cloud details: Overcast 400 ft
2018/09/25 20:56 KJHW 252056Z AUTO 20007KT 10SM OVC004 18/18 A3007 RMK AO2 SLP183 60000 T01830178 56014
 
KMSS - Massena, New York, USA
Distance from station: N 141mi, 232km
Updated: Tue, 25-Sep-2018 4:53pm EDT
Overcast
Overcast
 Wind from S
Wind: S 12 mph , 19 km/h
Temperature: 64°F , 18°C
Dew Point: 59°F , 15°C
Humidity: 83%
Barometer: 30.08 inHg , 1018.6 hPa
Clouds: Overcast
Visibility: 10 miles , 16 km
Cloud details: Overcast 3200 ft
2018/09/25 20:53 KMSS 252053Z AUTO 18010KT 10SM OVC032 18/15 A3008 RMK AO2 SLP186 T01830150 56024
KBUF - Buffalo, New York, USA
Distance from station: W 204mi, 328km
Updated: Tue, 25-Sep-2018 4:54pm EDT
Mostly cloudy
Mostly cloudy
 Wind from S
Wind: S 17 mph , 28 km/h
Temperature: 72°F , 22°C
Dew Point: 64°F , 18°C
Humidity: 78%
Barometer: 29.99 inHg , 1015.6 hPa
Clouds: Mostly cloudy
Visibility: 10 miles , 16 km
Cloud details: Few Clouds 1700 ft
Partly cloudy 2400 ft
Mostly cloudy 3000 ft
Mostly cloudy 14000 ft
Mostly cloudy 20000 ft
2018/09/25 20:54 KBUF 252054Z 19015KT 10SM FEW017 SCT024 BKN030 BKN140 BKN200 22/18 A2999 RMK AO2 RAE14 SLP154 P0000 60000 T02170183 56015